Time;durP1;ratioP1;P1;durP2;ratioP2;P2;SDS_P1;SDS_P2;PMS_P1;PMS_P2;Temp;Humidity;BMP_temperature;BMP_pressure;BME280_temperature;BME280_humidity;BME280_pressure;Samples;Min_cycle;Max_cycle;Signal;HPM_P1;HPM_P2
2021/03/19 00:01:39;;;;;;;36.97;23.77;;;2.80;99.90;;;;;;5075654;28;20605;-62
2021/03/19 00:04:07;;;;;;;41.83;25.40;;;2.80;99.90;;;;;;5075602;28;20210;-62
2021/03/19 00:06:34;;;;;;;40.00;24.33;;;2.80;99.90;;;;;;5074524;28;20316;-62
2021/03/19 00:09:03;;;;;;;43.00;25.77;;;2.80;99.90;;;;;;5074555;28;20294;-63
2021/03/19 00:11:30;;;;;;;40.90;23.87;;;2.80;99.90;;;;;;5074159;28;20200;-62
2021/03/19 00:13:57;;;;;;;37.17;22.63;;;2.70;99.90;;;;;;5073834;28;20543;-62
2021/03/19 00:16:25;;;;;;;37.00;24.00;;;2.70;99.90;;;;;;5073777;28;20197;-62
2021/03/19 00:18:54;;;;;;;38.13;23.83;;;2.60;99.90;;;;;;5075640;28;20212;-62
2021/03/19 00:21:21;;;;;;;40.40;25.13;;;2.50;99.90;;;;;;5085077;28;20247;-62
2021/03/19 00:23:48;;;;;;;34.03;21.80;;;2.40;99.90;;;;;;5074113;28;20204;-62
2021/03/19 00:26:15;;;;;;;35.37;22.23;;;2.30;99.90;;;;;;5073800;28;20216;-62
2021/03/19 00:28:42;;;;;;;35.37;22.13;;;2.30;99.90;;;;;;5073746;28;20205;-62
2021/03/19 00:31:09;;;;;;;37.20;21.57;;;2.30;99.90;;;;;;5073644;28;20619;-62
2021/03/19 00:33:37;;;;;;;33.50;20.47;;;2.20;99.90;;;;;;5073879;28;20247;-61
2021/03/19 00:36:04;;;;;;;35.40;21.53;;;2.30;99.90;;;;;;5074158;28;20197;-62
2021/03/19 00:38:31;;;;;;;33.87;21.17;;;2.40;99.90;;;;;;5073297;28;20237;-62
2021/03/19 00:40:58;;;;;;;34.87;21.50;;;2.50;99.90;;;;;;5073925;28;20236;-63
2021/03/19 00:43:25;;;;;;;33.17;20.37;;;2.60;99.90;;;;;;5073620;28;20287;-62
2021/03/19 00:45:52;;;;;;;30.17;19.83;;;2.70;99.90;;;;;;5073374;28;20202;-63
2021/03/19 00:48:19;;;;;;;33.40;20.83;;;2.60;99.90;;;;;;5074058;28;20296;-62
2021/03/19 00:50:52;;;;;;;32.93;21.63;;;2.70;99.90;;;;;;5082961;28;20205;-62
2021/03/19 00:53:20;;;;;;;29.03;19.27;;;2.70;99.90;;;;;;5093462;28;20843;-62
2021/03/19 00:55:48;;;;;;;34.27;20.17;;;2.70;99.90;;;;;;5093441;28;20202;-63
2021/03/19 00:58:15;;;;;;;30.57;18.73;;;2.70;99.90;;;;;;5093342;28;20730;-62
2021/03/19 01:00:41;;;;;;;24.87;16.37;;;2.70;99.90;;;;;;5093194;28;20192;-62
2021/03/19 01:03:10;;;;;;;25.30;16.33;;;2.60;99.90;;;;;;5093512;28;20210;-62
2021/03/19 01:05:39;;;;;;;27.23;17.20;;;2.50;99.90;;;;;;5093464;28;20212;-63
2021/03/19 01:08:09;;;;;;;30.83;19.57;;;2.60;99.90;;;;;;5093195;28;20257;-63
2021/03/19 01:10:39;;;;;;;28.07;18.57;;;2.70;99.90;;;;;;5093264;28;20256;-62
2021/03/19 01:13:06;;;;;;;26.33;17.93;;;2.60;99.90;;;;;;5093066;28;20212;-63
2021/03/19 01:15:34;;;;;;;25.37;17.07;;;2.60;99.90;;;;;;5092689;28;20239;-61
2021/03/19 01:18:02;;;;;;;31.60;20.23;;;2.60;99.90;;;;;;5092936;28;20257;-62
2021/03/19 01:20:31;;;;;;;34.27;22.17;;;2.60;99.90;;;;;;5092732;28;20699;-62
2021/03/19 01:22:58;;;;;;;34.10;23.03;;;2.60;99.90;;;;;;5092922;28;20208;-63
2021/03/19 01:25:28;;;;;;;33.53;22.23;;;2.50;99.90;;;;;;5092986;28;20295;-61
2021/03/19 01:27:55;;;;;;;38.13;24.00;;;2.70;99.90;;;;;;5092559;28;20831;-62
2021/03/19 01:30:24;;;;;;;31.13;21.13;;;2.50;99.90;;;;;;5092455;28;20217;-62
2021/03/19 01:32:51;;;;;;;32.07;21.17;;;2.60;99.90;;;;;;5092977;28;20245;-61
2021/03/19 01:35:21;;;;;;;34.40;21.83;;;2.60;99.90;;;;;;5092924;28;20315;-61
2021/03/19 01:37:48;;;;;;;36.00;23.87;;;2.60;99.90;;;;;;5092617;28;20287;-62
2021/03/19 01:40:16;;;;;;;34.63;22.83;;;2.50;99.90;;;;;;5092722;28;20232;-62
2021/03/19 01:42:45;;;;;;;41.77;23.73;;;2.50;99.90;;;;;;5092930;28;20272;-62
2021/03/19 01:45:47;;;;;;;34.67;22.63;;;2.60;99.90;;;;;;5092546;28;20260;-62
2021/03/19 01:48:52;;;;;;;38.27;23.07;;;2.80;99.90;;;;;;5092339;28;20261;-62
2021/03/19 01:52:09;;;;;;;34.53;22.43;;;2.80;99.90;;;;;;5092643;28;20207;-63
2021/03/19 01:55:13;;;;;;;31.97;20.20;;;2.60;99.90;;;;;;5089528;28;20224;-63
2021/03/19 01:58:17;;;;;;;28.57;19.33;;;2.70;99.90;;;;;;5084719;28;20242;-62
2021/03/19 02:01:21;;;;;;;29.50;19.43;;;2.70;99.90;;;;;;5092104;28;20724;-63
2021/03/19 02:04:25;;;;;;;29.63;19.87;;;2.60;99.90;;;;;;5092227;28;20820;-62
2021/03/19 02:07:31;;;;;;;30.37;18.60;;;2.60;99.90;;;;;;5092327;28;20219;-63
2021/03/19 02:10:37;;;;;;;28.03;18.47;;;2.70;99.90;;;;;;5092376;28;20225;-62
2021/03/19 02:13:42;;;;;;;28.37;18.77;;;2.50;99.90;;;;;;5091708;28;20290;-63
2021/03/19 02:16:46;;;;;;;28.30;18.70;;;2.60;99.90;;;;;;5092198;28;20286;-62
2021/03/19 02:19:50;;;;;;;30.37;18.23;;;2.50;99.90;;;;;;5086955;28;20258;-62
2021/03/19 02:22:54;;;;;;;27.13;18.23;;;2.40;99.90;;;;;;5083900;28;20627;-62
2021/03/19 02:25:59;;;;;;;23.80;17.43;;;2.50;99.90;;;;;;5092094;28;20210;-63
2021/03/19 02:29:03;;;;;;;26.57;18.10;;;2.40;99.90;;;;;;5091951;28;20292;-62
2021/03/19 02:32:05;;;;;;;25.97;17.30;;;2.40;99.90;;;;;;5092290;28;20240;-62
2021/03/19 02:34:37;;;;;;;28.50;18.60;;;2.30;99.90;;;;;;5029222;28;20237;-62
2021/03/19 02:37:04;;;;;;;28.47;16.67;;;2.30;99.90;;;;;;5081394;28;20740;-62
2021/03/19 02:39:31;;;;;;;29.37;18.43;;;2.30;99.90;;;;;;5091861;28;20288;-62
2021/03/19 02:42:00;;;;;;;26.33;17.40;;;2.40;99.90;;;;;;5091992;28;20227;-63
2021/03/19 02:44:28;;;;;;;27.83;17.97;;;2.50;99.90;;;;;;5091196;28;20204;-62
2021/03/19 02:46:57;;;;;;;26.97;17.80;;;2.40;99.90;;;;;;5091649;28;20222;-62
2021/03/19 02:49:25;;;;;;;28.07;17.63;;;2.30;99.90;;;;;;5092012;28;20215;-62
2021/03/19 02:51:54;;;;;;;26.20;16.60;;;2.40;99.90;;;;;;5092114;28;20220;-62
2021/03/19 02:54:21;;;;;;;28.67;18.57;;;2.30;99.90;;;;;;5091532;28;20679;-62
2021/03/19 02:56:48;;;;;;;27.10;17.50;;;2.20;99.90;;;;;;5091723;28;20200;-61
2021/03/19 02:59:15;;;;;;;25.27;16.63;;;2.40;99.90;;;;;;5091433;28;20204;-61
2021/03/19 03:01:42;;;;;;;27.43;18.80;;;2.30;99.90;;;;;;5095250;28;20239;-62
2021/03/19 03:04:11;;;;;;;26.53;17.70;;;2.40;99.90;;;;;;5096112;28;20196;-63
2021/03/19 03:06:43;;;;;;;27.20;16.97;;;2.50;99.90;;;;;;5100806;28;20757;-62
2021/03/19 03:09:12;;;;;;;25.27;17.63;;;2.50;99.90;;;;;;5104713;28;20189;-61
2021/03/19 03:11:40;;;;;;;23.90;17.13;;;2.60;99.90;;;;;;5099193;28;20204;-62
2021/03/19 03:14:10;;;;;;;26.33;17.97;;;2.70;99.90;;;;;;5095076;28;20679;-63
2021/03/19 03:16:37;;;;;;;25.40;16.10;;;2.70;99.90;;;;;;5095508;28;20604;-62
2021/03/19 03:19:07;;;;;;;26.77;16.97;;;2.70;99.90;;;;;;5088718;28;20209;-61
2021/03/19 03:21:34;;;;;;;26.03;17.23;;;2.60;99.90;;;;;;5085853;28;20234;-62
2021/03/19 03:24:03;;;;;;;25.60;16.83;;;2.40;99.90;;;;;;5095074;28;20204;-62
2021/03/19 03:26:30;;;;;;;26.60;16.67;;;2.30;99.90;;;;;;5095756;28;20709;-62
2021/03/19 03:28:57;;;;;;;26.87;17.47;;;2.30;99.90;;;;;;5096083;28;20214;-62
2021/03/19 03:31:24;;;;;;;28.17;17.17;;;2.40;99.90;;;;;;5096236;28;20201;-63
2021/03/19 03:33:51;;;;;;;28.07;18.47;;;2.30;99.90;;;;;;5096119;28;20200;-62
2021/03/19 03:36:19;;;;;;;27.53;18.17;;;2.20;99.90;;;;;;5096227;28;20231;-62
2021/03/19 03:38:47;;;;;;;28.10;18.23;;;2.20;99.90;;;;;;5096080;28;20211;-63
2021/03/19 03:41:18;;;;;;;28.10;17.77;;;2.20;99.90;;;;;;5095609;28;20228;-63
2021/03/19 03:43:46;;;;;;;27.73;18.03;;;2.20;99.90;;;;;;5095949;28;20629;-62
2021/03/19 03:46:16;;;;;;;28.43;18.27;;;2.10;99.90;;;;;;5095943;28;20202;-62
2021/03/19 03:48:44;;;;;;;28.67;18.33;;;2.10;99.90;;;;;;5095990;28;20204;-62
2021/03/19 03:51:12;;;;;;;31.00;19.47;;;2.10;99.90;;;;;;5095836;28;20205;-62
2021/03/19 03:53:40;;;;;;;28.00;17.90;;;1.90;99.90;;;;;;5095556;28;20256;-62
2021/03/19 03:56:09;;;;;;;30.87;18.47;;;1.90;99.90;;;;;;5095486;28;20254;-62
2021/03/19 03:58:38;;;;;;;30.23;18.77;;;1.90;99.90;;;;;;5095575;28;20664;-62
2021/03/19 04:01:05;;;;;;;26.70;17.90;;;1.90;99.90;;;;;;5095079;28;20695;-63
2021/03/19 04:03:33;;;;;;;30.00;19.23;;;1.80;99.90;;;;;;5095349;28;20287;-62
2021/03/19 04:06:00;;;;;;;27.50;18.30;;;1.80;99.90;;;;;;5095663;28;20676;-62
2021/03/19 04:08:29;;;;;;;31.40;19.00;;;1.80;99.90;;;;;;5095423;28;20315;-61
2021/03/19 04:10:58;;;;;;;28.13;18.40;;;1.80;99.90;;;;;;5095502;28;20234;-62
2021/03/19 04:13:27;;;;;;;28.43;17.60;;;1.80;99.90;;;;;;5094345;28;20231;-62
2021/03/19 04:15:56;;;;;;;29.33;18.57;;;1.70;99.90;;;;;;5095154;28;20206;-62
2021/03/19 04:18:24;;;;;;;30.40;18.43;;;1.60;99.90;;;;;;5095259;28;20198;-62
2021/03/19 04:20:53;;;;;;;32.03;19.80;;;1.60;99.90;;;;;;5095304;28;20251;-64
2021/03/19 04:23:27;;;;;;;32.33;19.47;;;1.60;99.90;;;;;;5095334;28;20188;-64
2021/03/19 04:25:54;;;;;;;29.77;18.90;;;1.70;99.90;;;;;;5095044;28;20233;-64
2021/03/19 04:28:24;;;;;;;33.03;20.80;;;1.70;99.90;;;;;;5094751;28;20256;-65
2021/03/19 04:30:51;;;;;;;33.93;21.67;;;1.80;99.90;;;;;;5095169;28;20234;-65
2021/03/19 04:33:22;;;;;;;36.40;22.37;;;1.80;99.90;;;;;;5094972;28;20307;-64
2021/03/19 04:35:56;;;;;;;39.23;22.20;;;1.80;99.90;;;;;;5094974;28;20184;-65
2021/03/19 04:38:23;;;;;;;33.77;20.37;;;2.00;99.90;;;;;;5094957;28;20242;-63
2021/03/19 04:40:50;;;;;;;30.27;19.57;;;1.90;99.90;;;;;;5094627;28;20228;-63
2021/03/19 04:43:17;;;;;;;30.37;18.60;;;2.00;99.90;;;;;;5094528;28;20261;-65
2021/03/19 04:45:46;;;;;;;25.50;15.87;;;2.00;99.90;;;;;;5087590;28;20284;-64
2021/03/19 04:48:13;;;;;;;23.33;14.27;;;2.10;99.90;;;;;;5074135;28;20708;-64
2021/03/19 04:50:41;;;;;;;18.03;11.07;;;2.10;99.90;;;;;;5074409;28;20204;-64
2021/03/19 04:53:08;;;;;;;13.77;9.33;;;2.00;99.90;;;;;;5074113;28;20316;-64
2021/03/19 04:55:35;;;;;;;13.23;9.17;;;2.00;99.90;;;;;;5073742;28;20300;-64
2021/03/19 04:58:02;;;;;;;12.17;8.13;;;2.00;99.90;;;;;;5073968;28;20254;-63
2021/03/19 05:00:29;;;;;;;12.23;8.30;;;2.00;99.90;;;;;;5074121;28;20228;-63
2021/03/19 05:02:56;;;;;;;10.07;7.87;;;1.90;99.90;;;;;;5074284;28;20197;-64
2021/03/19 05:05:27;;;;;;;10.60;8.37;;;2.00;99.90;;;;;;5073903;28;20201;-64
2021/03/19 05:07:56;;;;;;;12.27;8.10;;;2.00;99.90;;;;;;5073972;28;20236;-63
2021/03/19 05:10:25;;;;;;;10.33;7.97;;;1.90;99.90;;;;;;5073985;28;20201;-64
2021/03/19 05:12:53;;;;;;;9.97;8.37;;;1.70;99.90;;;;;;5073921;28;20208;-64
2021/03/19 05:15:20;;;;;;;12.33;8.23;;;1.70;99.90;;;;;;5073908;28;20250;-63
2021/03/19 05:17:47;;;;;;;10.90;8.03;;;1.70;99.90;;;;;;5073817;28;20204;-64
2021/03/19 05:20:15;;;;;;;12.53;8.97;;;1.70;99.90;;;;;;5073815;28;20212;-63
2021/03/19 05:22:42;;;;;;;13.47;10.03;;;1.60;99.90;;;;;;5073539;28;20258;-64
2021/03/19 05:25:14;;;;;;;12.57;9.40;;;1.60;99.90;;;;;;5073200;28;20652;-65
2021/03/19 05:27:41;;;;;;;13.93;9.73;;;1.60;99.90;;;;;;5073672;28;20299;-64
2021/03/19 05:30:11;;;;;;;13.40;10.53;;;1.50;99.90;;;;;;5073664;28;20250;-64
2021/03/19 05:32:38;;;;;;;12.40;9.67;;;1.50;99.90;;;;;;5073612;28;20270;-65
2021/03/19 05:35:07;;;;;;;13.37;9.80;;;1.60;99.90;;;;;;5073548;28;20299;-64
2021/03/19 05:37:34;;;;;;;13.47;10.17;;;1.60;99.90;;;;;;5073064;28;20288;-63
2021/03/19 05:40:01;;;;;;;15.57;10.70;;;1.60;99.90;;;;;;5092307;28;20204;-64
2021/03/19 05:42:33;;;;;;;16.13;9.87;;;1.70;99.90;;;;;;5093638;28;20203;-64
2021/03/19 05:45:05;;;;;;;13.83;10.10;;;1.70;99.90;;;;;;5093629;28;20188;-65
2021/03/19 05:47:32;;;;;;;13.53;9.63;;;1.70;99.90;;;;;;5093260;28;20603;-64
2021/03/19 05:50:01;;;;;;;12.23;8.93;;;1.70;99.90;;;;;;5086676;28;20200;-64
2021/03/19 05:52:33;;;;;;;13.47;10.43;;;1.80;99.90;;;;;;5076223;28;20220;-64
2021/03/19 05:55:12;;;;;;;13.70;9.63;;;1.80;99.90;;;;;;5076810;28;20228;-64
2021/03/19 05:57:40;;;;;;;11.80;8.63;;;1.70;99.90;;;;;;5085215;28;20229;-65
2021/03/19 06:00:17;;;;;;;14.30;9.10;;;1.60;99.90;;;;;;5093009;28;20257;-64
2021/03/19 06:02:44;;;;;;;13.07;9.57;;;1.60;99.90;;;;;;5093245;28;20184;-64
2021/03/19 06:05:14;;;;;;;13.50;9.27;;;1.60;99.90;;;;;;5093141;28;20208;-66
2021/03/19 06:07:46;;;;;;;12.83;9.20;;;1.60;99.90;;;;;;5092992;28;20590;-64
2021/03/19 06:10:20;;;;;;;11.43;8.13;;;1.60;99.90;;;;;;5092653;28;20638;-65
2021/03/19 06:12:52;;;;;;;12.77;9.10;;;1.70;99.90;;;;;;5092783;28;20253;-64
2021/03/19 06:15:29;;;;;;;12.10;8.63;;;1.70;99.90;;;;;;5092909;28;20212;-64
2021/03/19 06:18:00;;;;;;;10.73;8.30;;;1.80;99.90;;;;;;5080526;28;20204;-64
2021/03/19 06:20:28;;;;;;;12.70;9.30;;;1.70;99.90;;;;;;5072822;28;20232;-64
2021/03/19 06:23:05;;;;;;;11.60;8.23;;;1.70;99.90;;;;;;5072487;28;20232;-64
2021/03/19 06:25:39;;;;;;;10.50;7.73;;;1.70;99.90;;;;;;5072327;28;20187;-64
2021/03/19 06:28:23;;;;;;;9.90;7.60;;;1.80;99.90;;;;;;5072135;28;20304;-65
2021/03/19 06:30:50;;;;;;;11.53;8.53;;;1.90;99.90;;;;;;5072702;28;20314;-64
2021/03/19 06:33:25;;;;;;;10.47;7.83;;;1.90;99.90;;;;;;5075341;28;20273;-64
2021/03/19 06:36:09;;;;;;;11.97;8.60;;;2.00;99.90;;;;;;5074416;28;20214;-65
2021/03/19 06:38:45;;;;;;;10.40;8.20;;;2.10;99.90;;;;;;5076645;28;20177;-65
2021/03/19 06:41:29;;;;;;;11.50;7.77;;;2.00;99.90;;;;;;5075798;28;20201;-63
2021/03/19 06:44:17;;;;;;;11.47;7.10;;;2.10;99.90;;;;;;5074313;28;20208;-64
2021/03/19 06:46:47;;;;;;;12.13;7.90;;;2.10;99.90;;;;;;5085215;28;20283;-64
2021/03/19 06:49:16;;;;;;;10.60;8.07;;;2.00;99.90;;;;;;5096705;28;20189;-63
2021/03/19 06:51:46;;;;;;;10.03;7.53;;;2.10;99.90;;;;;;5096258;28;20237;-63
2021/03/19 06:54:16;;;;;;;9.57;7.73;;;2.10;99.90;;;;;;5089283;28;20228;-64
2021/03/19 06:57:06;;;;;;;11.73;7.77;;;2.20;99.90;;;;;;5083187;28;20645;-64
2021/03/19 06:59:43;;;;;;;10.07;7.23;;;2.30;99.90;;;;;;5086923;28;20559;-63
2021/03/19 07:02:44;;;;;;;9.20;7.27;;;2.40;99.90;;;;;;5075794;28;20279;-64
2021/03/19 07:05:33;;;;;;;10.57;6.93;;;2.50;99.90;;;;;;5087403;28;20229;-64
2021/03/19 07:08:19;;;;;;;11.33;7.47;;;2.60;99.90;;;;;;5075879;28;20213;-64
2021/03/19 07:10:56;;;;;;;11.80;7.77;;;2.60;99.90;;;;;;5078654;28;20276;-64
2021/03/19 07:13:36;;;;;;;11.07;8.10;;;2.50;99.90;;;;;;5075856;28;20196;-67
2021/03/19 07:16:12;;;;;;;12.93;8.73;;;2.50;99.90;;;;;;5095362;28;20200;-64
2021/03/19 07:18:59;;;;;;;12.93;8.83;;;2.50;99.90;;;;;;5103566;28;20176;-64
2021/03/19 07:21:49;;;;;;;13.57;9.03;;;2.50;99.90;;;;;;5108879;28;20215;-64
2021/03/19 07:24:32;;;;;;;15.07;9.33;;;2.60;99.90;;;;;;5098065;28;20250;-63
2021/03/19 07:27:05;;;;;;;17.03;10.07;;;2.70;99.90;;;;;;5095416;28;20223;-63
2021/03/19 07:29:55;;;;;;;14.77;9.47;;;2.70;99.90;;;;;;5095651;28;20184;-63
2021/03/19 07:32:39;;;;;;;16.20;10.10;;;2.70;99.90;;;;;;5091752;28;20262;-63
2021/03/19 07:35:30;;;;;;;17.70;10.60;;;2.80;99.90;;;;;;5089566;28;20646;-64
2021/03/19 07:38:32;;;;;;;19.03;10.53;;;2.90;99.90;;;;;;5075388;28;20219;-63
2021/03/19 07:41:23;;;;;;;17.50;10.70;;;3.00;99.90;;;;;;5084437;28;20196;-63
2021/03/19 07:44:11;;;;;;;16.50;10.13;;;3.10;99.90;;;;;;5074511;28;20204;-64
2021/03/19 07:46:44;;;;;;;17.87;10.97;;;3.20;99.90;;;;;;5083335;28;20292;-63
2021/03/19 07:49:29;;;;;;;16.77;11.00;;;3.40;99.90;;;;;;5095723;28;20296;-64
2021/03/19 07:52:06;;;;;;;20.57;9.87;;;3.60;99.90;;;;;;5088919;28;20193;-66
2021/03/19 07:54:47;;;;;;;18.43;10.90;;;3.40;99.90;;;;;;5083671;28;20316;-63
2021/03/19 07:57:22;;;;;;;18.57;10.93;;;3.50;99.90;;;;;;5079698;28;20652;-63
2021/03/19 07:59:59;;;;;;;18.40;10.97;;;3.20;99.90;;;;;;5085687;28;20231;-64
2021/03/19 08:02:59;;;;;;;20.03;11.90;;;3.00;99.90;;;;;;5082099;28;20188;-64
2021/03/19 08:05:35;;;;;;;20.03;11.43;;;3.10;99.90;;;;;;5085660;28;20205;-65
2021/03/19 08:08:15;;;;;;;20.63;11.30;;;3.40;99.90;;;;;;5094832;28;20200;-64
2021/03/19 08:10:55;;;;;;;20.60;11.97;;;3.60;99.90;;;;;;5078829;28;20284;-64
2021/03/19 08:13:34;;;;;;;20.03;11.23;;;3.80;99.90;;;;;;5091688;28;20257;-64
2021/03/19 08:16:09;;;;;;;18.83;11.73;;;4.20;99.90;;;;;;5095110;28;20186;-65
2021/03/19 08:18:43;;;;;;;17.80;11.07;;;4.60;99.90;;;;;;5094992;28;20178;-63
2021/03/19 08:21:24;;;;;;;19.13;11.43;;;4.50;99.90;;;;;;5095065;28;20204;-65
2021/03/19 08:24:04;;;;;;;21.10;12.77;;;4.10;99.90;;;;;;5094784;28;20272;-64
2021/03/19 08:26:47;;;;;;;19.23;11.13;;;4.00;99.90;;;;;;5094517;28;20249;-64
2021/03/19 08:29:21;;;;;;;18.63;11.13;;;3.80;99.90;;;;;;5094695;28;20208;-64
2021/03/19 08:31:55;;;;;;;21.70;12.37;;;3.60;99.90;;;;;;5094401;28;20219;-63
2021/03/19 08:34:36;;;;;;;22.60;12.93;;;3.50;99.90;;;;;;5094828;28;20185;-63
2021/03/19 08:37:16;;;;;;;17.43;11.93;;;3.30;99.90;;;;;;5094363;28;20192;-63
2021/03/19 08:39:45;;;;;;;18.60;11.67;;;3.10;99.90;;;;;;5094307;28;20624;-64
2021/03/19 08:42:20;;;;;;;22.10;12.67;;;3.20;99.90;;;;;;5093770;28;20235;-64
2021/03/19 08:44:47;;;;;;;22.93;12.80;;;3.20;99.90;;;;;;5094429;28;20201;-64
2021/03/19 08:47:25;;;;;;;19.27;12.53;;;3.20;99.90;;;;;;5094486;28;20200;-65
2021/03/19 08:49:55;;;;;;;19.40;12.47;;;3.20;99.90;;;;;;5094139;28;20275;-64
2021/03/19 08:52:36;;;;;;;23.20;12.63;;;3.20;99.90;;;;;;5094333;28;20204;-64
2021/03/19 08:55:24;;;;;;;21.43;12.53;;;3.20;99.90;;;;;;5093582;28;20242;-63
2021/03/19 08:57:53;;;;;;;20.67;12.83;;;3.20;99.90;;;;;;5093507;28;20269;-63
2021/03/19 09:00:46;;;;;;;21.63;12.83;;;3.20;99.90;;;;;;5094102;28;20212;-64
2021/03/19 09:03:47;;;;;;;22.20;14.50;;;3.00;99.90;;;;;;5094456;28;20185;-63
2021/03/19 09:06:17;;;;;;;22.57;13.20;;;2.90;99.90;;;;;;5087698;28;20283;-64
2021/03/19 09:09:18;;;;;;;21.77;12.40;;;3.00;99.90;;;;;;5079126;28;20248;-64
2021/03/19 09:12:14;;;;;;;16.73;11.50;;;3.00;99.90;;;;;;5073280;28;20204;-64
2021/03/19 09:14:51;;;;;;;18.37;11.07;;;3.10;99.90;;;;;;5072785;28;20255;-65
2021/03/19 09:17:53;;;;;;;18.20;11.00;;;3.40;99.90;;;;;;5073584;28;20196;-63
2021/03/19 09:20:51;;;;;;;16.60;10.27;;;3.50;99.90;;;;;;5072921;28;20196;-63
2021/03/19 09:23:22;;;;;;;14.23;9.53;;;3.60;99.90;;;;;;5073371;28;20272;-63
2021/03/19 09:25:54;;;;;;;16.40;10.77;;;3.60;99.90;;;;;;5073001;28;20240;-64
2021/03/19 09:28:32;;;;;;;15.73;9.57;;;3.60;99.90;;;;;;5079543;28;20650;-64
2021/03/19 09:31:03;;;;;;;13.87;9.73;;;3.50;99.90;;;;;;5081563;28;20320;-64
2021/03/19 09:34:05;;;;;;;16.90;10.00;;;3.40;99.90;;;;;;5083715;28;20198;-63
2021/03/19 09:36:58;;;;;;;18.60;10.87;;;3.50;99.90;;;;;;5084773;28;20687;-65
2021/03/19 09:40:10;;;;;;;16.17;10.77;;;3.40;99.90;;;;;;5084765;28;20247;-68
2021/03/19 09:42:52;;;;;;;15.90;9.67;;;3.40;99.90;;;;;;5010905;28;20408;-68
2021/03/19 09:45:30;;;;;;;14.70;9.43;;;3.50;99.90;;;;;;5027512;28;20275;-68
2021/03/19 09:48:21;;;;;;;14.87;9.73;;;3.60;99.90;;;;;;5054619;28;21183;-69
2021/03/19 09:51:05;;;;;;;15.07;10.03;;;3.70;99.90;;;;;;5078737;28;20225;-68
2021/03/19 09:53:36;;;;;;;17.17;9.93;;;3.80;99.90;;;;;;5068997;28;20657;-68
2021/03/19 09:56:14;;;;;;;14.83;9.50;;;3.80;99.90;;;;;;5083096;28;20200;-68
2021/03/19 09:58:44;;;;;;;16.47;10.43;;;3.60;99.90;;;;;;5070075;28;20727;-65
2021/03/19 10:01:25;;;;;;;14.17;9.40;;;3.50;99.90;;;;;;5079504;28;20237;-65
2021/03/19 10:03:56;;;;;;;15.50;9.53;;;3.70;99.90;;;;;;5069482;28;20197;-63
2021/03/19 10:06:28;;;;;;;13.93;9.37;;;3.70;99.90;;;;;;5088633;28;20196;-64
2021/03/19 10:09:11;;;;;;;15.47;9.47;;;3.80;99.90;;;;;;5089074;28;20240;-63
2021/03/19 10:11:51;;;;;;;12.20;8.73;;;4.20;99.90;;;;;;5078580;28;20673;-62
2021/03/19 10:14:24;;;;;;;16.00;9.80;;;4.30;99.90;;;;;;5084032;28;20246;-68
2021/03/19 10:17:03;;;;;;;12.67;9.53;;;4.40;99.90;;;;;;5089799;28;20267;-66
2021/03/19 10:19:35;;;;;;;14.43;9.60;;;4.20;99.90;;;;;;5085729;28;20237;-67
2021/03/19 10:22:06;;;;;;;16.20;9.60;;;4.20;99.90;;;;;;5076577;28;20221;-66
2021/03/19 10:24:34;;;;;;;12.70;9.10;;;4.30;99.90;;;;;;5069726;28;20323;-59
2021/03/19 10:27:04;;;;;;;14.07;8.03;;;4.40;99.90;;;;;;5069081;28;20272;-59
2021/03/19 10:29:34;;;;;;;10.70;7.50;;;4.40;99.90;;;;;;5071331;28;20212;-68
2021/03/19 10:32:04;;;;;;;11.10;7.97;;;4.50;99.90;;;;;;5078334;28;20210;-63
2021/03/19 10:34:47;;;;;;;10.70;7.40;;;4.60;99.90;;;;;;5069301;28;20287;-63
2021/03/19 10:37:26;;;;;;;13.40;7.67;;;4.60;99.90;;;;;;5078000;28;20214;-65
2021/03/19 10:39:59;;;;;;;10.37;7.77;;;4.90;99.90;;;;;;5085716;28;20284;-62
2021/03/19 10:42:30;;;;;;;10.33;7.17;;;5.20;99.90;;;;;;5081642;28;20204;-63
2021/03/19 10:45:20;;;;;;;9.40;5.70;;;5.50;99.90;;;;;;5083176;28;20207;-63
2021/03/19 10:47:55;;;;;;;6.57;4.70;;;5.70;99.90;;;;;;5089465;28;20299;-65
2021/03/19 10:50:27;;;;;;;7.27;4.97;;;5.80;99.90;;;;;;5081981;28;20602;-65
2021/03/19 10:53:02;;;;;;;7.20;4.70;;;5.80;99.90;;;;;;5073260;28;20899;-64
2021/03/19 10:55:32;;;;;;;7.30;4.90;;;5.90;99.90;;;;;;5068719;28;20735;-67
2021/03/19 10:58:33;;;;;;;6.43;4.70;;;6.00;99.90;;;;;;5068769;28;20195;-65
2021/03/19 11:01:03;;;;;;;7.43;4.53;;;6.10;99.90;;;;;;5075402;28;20662;-67
2021/03/19 11:03:43;;;;;;;6.73;4.20;;;6.00;99.90;;;;;;5079198;28;20210;-62
2021/03/19 11:06:13;;;;;;;6.33;4.93;;;5.80;99.90;;;;;;5078752;28;20199;-65
2021/03/19 11:08:41;;;;;;;7.43;4.60;;;5.90;99.90;;;;;;5080929;28;20219;-63
2021/03/19 11:11:08;;;;;;;7.23;4.53;;;6.00;99.90;;;;;;5081012;28;20290;-63
2021/03/19 11:13:38;;;;;;;7.33;4.83;;;6.10;99.90;;;;;;5081228;28;20227;-65
2021/03/19 11:16:26;;;;;;;6.00;4.57;;;6.20;99.90;;;;;;5093277;28;20257;-64
2021/03/19 11:19:03;;;;;;;6.40;3.80;;;6.40;99.90;;;;;;5078598;28;20227;-64
2021/03/19 11:21:32;;;;;;;3.70;3.00;;;6.70;99.90;;;;;;5081571;28;20509;-63
2021/03/19 11:24:06;;;;;;;3.60;2.97;;;6.70;99.90;;;;;;5082487;28;20256;-64
2021/03/19 11:26:35;;;;;;;5.30;3.50;;;6.50;99.90;;;;;;5092830;28;20271;-65
2021/03/19 11:29:09;;;;;;;4.87;3.40;;;6.50;99.90;;;;;;5076786;28;20234;-65
2021/03/19 11:31:54;;;;;;;5.30;3.67;;;6.40;99.90;;;;;;5086218;28;20285;-63
2021/03/19 11:34:31;;;;;;;5.43;3.10;;;6.40;99.90;;;;;;5082543;28;20291;-64
2021/03/19 11:37:01;;;;;;;4.10;2.73;;;6.80;99.90;;;;;;5092563;28;20188;-64
2021/03/19 11:39:42;;;;;;;5.07;3.13;;;6.80;99.90;;;;;;5089284;28;20192;-63
2021/03/19 11:42:12;;;;;;;4.90;3.40;;;6.70;99.90;;;;;;5081166;28;20236;-65
2021/03/19 11:44:40;;;;;;;6.30;3.70;;;6.70;99.90;;;;;;5071786;28;20189;-65
2021/03/19 11:47:15;;;;;;;5.20;3.73;;;6.70;99.90;;;;;;5071131;28;20615;-64
2021/03/19 11:49:44;;;;;;;4.97;3.07;;;6.60;99.90;;;;;;5076323;28;20567;-62
2021/03/19 11:52:12;;;;;;;5.97;2.90;;;6.90;99.90;;;;;;5081071;28;20272;-63
2021/03/19 11:54:40;;;;;;;4.30;3.23;;;6.70;99.90;;;;;;5071126;28;20240;-64
2021/03/19 11:57:08;;;;;;;4.70;3.53;;;6.80;99.90;;;;;;5091114;28;20304;-64
2021/03/19 11:59:35;;;;;;;4.07;3.27;;;6.70;99.90;;;;;;5088096;28;20286;-65
2021/03/19 12:02:06;;;;;;;5.77;3.50;;;6.60;99.90;;;;;;5084254;28;20196;-65
2021/03/19 12:04:33;;;;;;;6.33;3.60;;;6.80;99.90;;;;;;5081190;28;20226;-64
2021/03/19 12:07:01;;;;;;;5.07;3.80;;;6.80;99.90;;;;;;5072111;28;20629;-66
2021/03/19 12:09:28;;;;;;;6.87;4.07;;;6.90;99.90;;;;;;5074644;28;20243;-64
2021/03/19 12:11:55;;;;;;;5.23;3.43;;;6.90;99.90;;;;;;5086548;28;20306;-59
2021/03/19 12:14:24;;;;;;;5.23;4.03;;;7.00;99.90;;;;;;5088850;28;20658;-63
2021/03/19 12:16:52;;;;;;;4.27;3.33;;;7.00;99.90;;;;;;5092020;28;20200;-62
2021/03/19 12:19:21;;;;;;;3.43;2.60;;;7.00;99.90;;;;;;5089325;28;20580;-63
2021/03/19 12:21:49;;;;;;;4.30;3.30;;;6.90;99.90;;;;;;5080349;28;20204;-62
2021/03/19 12:24:19;;;;;;;4.50;3.13;;;6.80;99.90;;;;;;5071300;28;20209;-69
2021/03/19 12:26:46;;;;;;;3.50;3.10;;;6.70;99.90;;;;;;5071317;28;20207;-64
2021/03/19 12:29:14;;;;;;;4.63;2.77;;;6.50;99.90;;;;;;5072169;28;20220;-63
2021/03/19 12:31:41;;;;;;;3.53;2.80;;;6.60;99.90;;;;;;5080557;28;20236;-66
2021/03/19 12:34:09;;;;;;;2.90;2.50;;;6.70;99.90;;;;;;5070799;28;20210;-69
2021/03/19 12:36:36;;;;;;;3.00;2.30;;;6.60;99.90;;;;;;5071582;28;20200;-60
2021/03/19 12:39:04;;;;;;;2.53;2.20;;;6.60;99.90;;;;;;5071076;28;20196;-61
2021/03/19 12:41:35;;;;;;;2.33;2.13;;;6.30;99.90;;;;;;5080412;28;20204;-60
2021/03/19 12:44:02;;;;;;;2.47;2.10;;;5.90;99.90;;;;;;5090928;28;20706;-63
2021/03/19 12:46:29;;;;;;;4.00;2.30;;;5.70;99.90;;;;;;5084901;28;20295;-66
2021/03/19 12:48:56;;;;;;;4.60;2.90;;;5.60;99.90;;;;;;5074407;28;20227;-61
2021/03/19 12:51:23;;;;;;;3.37;2.70;;;5.40;99.90;;;;;;5082161;28;20237;-61
2021/03/19 12:53:50;;;;;;;3.53;2.60;;;5.50;99.90;;;;;;5070388;28;20239;-68
2021/03/19 12:56:17;;;;;;;3.20;2.90;;;5.60;99.90;;;;;;5070511;28;20656;-68
2021/03/19 12:58:45;;;;;;;3.10;2.43;;;5.70;99.90;;;;;;5070427;28;20198;-67
2021/03/19 13:01:13;;;;;;;3.20;2.50;;;5.90;99.90;;;;;;5081390;28;20238;-62
2021/03/19 13:03:41;;;;;;;4.93;2.53;;;6.10;99.90;;;;;;5070398;28;20239;-60
2021/03/19 13:06:08;;;;;;;2.93;2.10;;;6.20;99.90;;;;;;5070175;28;20262;-62
2021/03/19 13:08:34;;;;;;;2.47;2.03;;;6.10;99.90;;;;;;5070395;28;20226;-67
2021/03/19 13:11:02;;;;;;;3.27;2.30;;;5.90;99.90;;;;;;5070237;28;20272;-66
2021/03/19 13:13:29;;;;;;;3.30;2.37;;;5.60;99.90;;;;;;5080076;28;20286;-66
2021/03/19 13:15:57;;;;;;;3.37;2.73;;;5.50;99.90;;;;;;5086493;28;20228;-71
2021/03/19 13:18:24;;;;;;;3.77;2.43;;;5.50;99.90;;;;;;5079268;28;20212;-67
2021/03/19 13:20:51;;;;;;;3.67;2.83;;;5.50;99.90;;;;;;5070099;28;20233;-67